Imperial, MO

11:15 AM CST on November 23, 2014 (GMT -0600)
Saint Louis Downtown | Change Station
CLOSE
Current Station
Airport
Location: Cahokia,
Elevation: 410 ft
Nearby Weather Stations

Elev 410 ft 38.57 °N, 90.16 °W | Updated 22 minutes ago

Rain
Rain
56 °F
Feels Like 56 °F
N
15
Wind Variable Wind from SE
Gusts 21 mph

Today
High -- | Low -- °F
--% Chance of Precip.
Yesterday
High -- | Low -- °F
Precip. -- in
6:51 AM 4:44 PM
New Moon, 2% visible
Pressure 29.58 in
Visibility 8.0 miles
Clouds Few 1700 ft
Mostly Cloudy 6500 ft
Overcast 8500 ft
Dew Point 53 °F
Humidity 90%
Rainfall 0.05 in
Snow Depth Not available.
UV 1 out of 12
Pollen .40 out of 12
Air Quality Not available.
Flu Activity Not available.
METAR KCPS 231653Z 13013G18KT 8SM -RA FEW017 BKN065 OVC085 13/12 A2958 RMK AO2 SLP017 P0002 T01330117

More Conditions Fewer Conditions

Pressure 29.58 in
Visibility 8.0 miles
Clouds Few 1700 ft
Mostly Cloudy 6500 ft
Overcast 8500 ft
Dew Point 53 °F
Humidity 90%
Rainfall 0.05 in
Snow Depth Not available.
UV 1 out of 12
Pollen .40 out of 12
Air Quality Not available.
Flu Activity Not available.
METAR KCPS 231653Z 13013G18KT 8SM -RA FEW017 BKN065 OVC085 13/12 A2958 RMK AO2 SLP017 P0002 T01330117

More Conditions Fewer Conditions

10-Day Weather Forecast

Almanac

Astronomy

Nov. 23, 2014 Rise Set
Actual Time
Civil Twilight
Nautical Twilight
Astronomical Twilight
Moon
Length of Visible Light
Length of Day
Tomorrow will be .
, % of the Moon is Illuminated

Today's Extremes

State Highs State Lows

Community

WunderPhotos

Upload Photos

1,773,104 photos uploaded!

WunderBlogs® & News

Nearby

Air Quality

  Air Quality AQ Index Pollutant
Not available.

Snow Depth

Station Depth Elevation

Earthquake Activity

City Distance Mag. Time & Date
Minimum magnitude displayed is 2.5.

Coastal Water Temperatures

Place Temperature

Nearby Weather Stations